createdAt,value
2018-12-16T00:00:26.072Z,27.30
2018-12-16T00:01:25.999Z,26.40
2018-12-16T00:02:25.972Z,28.00
2018-12-16T00:03:25.950Z,28.00
2018-12-16T00:04:25.920Z,28.50
2018-12-16T00:05:25.899Z,27.40
2018-12-16T00:06:25.867Z,26.60
2018-12-16T00:07:25.843Z,25.20
2018-12-16T00:08:25.822Z,24.30
2018-12-16T00:09:25.790Z,26.20
2018-12-16T00:10:25.765Z,29.50
2018-12-16T00:11:25.744Z,27.80
2018-12-16T00:12:25.710Z,24.50
2018-12-16T00:13:25.684Z,23.80
2018-12-16T00:14:25.738Z,25.40
2018-12-16T00:15:25.632Z,26.30
2018-12-16T00:16:25.608Z,25.70
2018-12-16T00:17:25.582Z,27.20
2018-12-16T00:18:25.554Z,29.80
2018-12-16T00:19:25.529Z,28.20
2018-12-16T00:20:25.501Z,26.90
2018-12-16T00:21:25.474Z,28.60
2018-12-16T00:22:29.884Z,27.10
2018-12-16T00:23:25.423Z,28.50
2018-12-16T00:24:25.395Z,27.50
2018-12-16T00:25:25.373Z,26.50
2018-12-16T00:26:25.343Z,28.10
2018-12-16T00:27:25.321Z,27.00
2018-12-16T00:28:25.292Z,29.50
2018-12-16T00:29:25.272Z,25.70
2018-12-16T00:30:25.239Z,29.80
2018-12-16T00:31:25.220Z,30.50
2018-12-16T00:32:25.186Z,28.10
2018-12-16T00:33:25.164Z,26.30
2018-12-16T00:34:25.135Z,29.00
2018-12-16T00:35:25.112Z,26.70
2018-12-16T00:36:25.088Z,26.20
2018-12-16T00:37:25.056Z,28.40
2018-12-16T00:38:25.033Z,25.10
2018-12-16T00:39:25.012Z,27.10
2018-12-16T00:40:24.979Z,27.20
2018-12-16T00:41:24.958Z,28.60
2018-12-16T00:42:24.927Z,28.30
2018-12-16T00:43:24.901Z,27.30
2018-12-16T00:44:24.873Z,27.50
2018-12-16T00:45:24.849Z,27.90
2018-12-16T00:46:24.821Z,26.20
2018-12-16T00:47:24.800Z,25.70
2018-12-16T00:48:24.772Z,25.90
2018-12-16T00:49:24.753Z,27.20
2018-12-16T00:50:24.719Z,30.10
2018-12-16T00:51:24.695Z,26.70
2018-12-16T00:52:24.668Z,26.90
2018-12-16T00:53:24.643Z,29.20
2018-12-16T00:54:24.614Z,24.90
2018-12-16T00:55:24.588Z,24.90
2018-12-16T00:56:24.566Z,26.80
2018-12-16T00:57:24.539Z,27.70
2018-12-16T00:58:24.513Z,27.90
2018-12-16T00:59:24.486Z,27.30
2018-12-16T01:00:24.463Z,25.50
2018-12-16T01:01:24.431Z,26.80
2018-12-16T01:02:24.410Z,27.40
2018-12-16T01:03:24.380Z,26.70
2018-12-16T01:04:24.355Z,24.90
2018-12-16T01:05:24.326Z,23.90
2018-12-16T01:06:24.305Z,26.00
2018-12-16T01:07:24.275Z,28.30
2018-12-16T01:08:24.247Z,26.50
2018-12-16T01:09:24.225Z,26.40
2018-12-16T01:10:24.198Z,24.90
2018-12-16T01:11:24.171Z,26.30
2018-12-16T01:12:24.158Z,26.80
2018-12-16T01:13:24.123Z,26.60
2018-12-16T01:14:24.098Z,26.60
2018-12-16T01:15:24.068Z,26.50
2018-12-16T01:16:24.043Z,26.20
2018-12-16T01:17:24.086Z,26.50
2018-12-16T01:18:23.991Z,27.40
2018-12-16T01:19:23.972Z,27.60
2018-12-16T01:20:23.941Z,28.40
2018-12-16T01:21:23.911Z,27.10
2018-12-16T01:22:23.888Z,24.20
2018-12-16T01:23:23.860Z,26.00
2018-12-16T01:24:23.837Z,24.90
2018-12-16T01:25:23.809Z,26.40
2018-12-16T01:26:23.792Z,27.00
2018-12-16T01:27:23.757Z,28.50
2018-12-16T01:28:23.733Z,26.00
2018-12-16T01:29:23.700Z,25.70
2018-12-16T01:30:23.674Z,28.00
2018-12-16T01:31:23.652Z,24.70
2018-12-16T01:32:23.623Z,26.70
2018-12-16T01:33:23.597Z,25.40
2018-12-16T01:34:23.586Z,26.00
2018-12-16T01:35:23.550Z,25.70
2018-12-16T01:36:23.519Z,26.00
2018-12-16T01:37:23.493Z,25.80
2018-12-16T01:38:23.476Z,25.10
2018-12-16T01:39:23.443Z,25.20
2018-12-16T01:40:23.418Z,27.30
2018-12-16T01:41:23.389Z,23.70
2018-12-16T01:42:23.368Z,27.60
2018-12-16T01:43:23.338Z,25.10
2018-12-16T01:44:23.312Z,24.10
2018-12-16T01:45:23.284Z,25.80
2018-12-16T01:46:23.263Z,24.30
2018-12-16T01:47:23.233Z,26.10
2018-12-16T01:48:23.211Z,26.30
2018-12-16T01:49:23.184Z,24.60
2018-12-16T01:50:23.156Z,24.20
2018-12-16T01:51:23.130Z,25.70
2018-12-16T01:52:23.113Z,27.40
2018-12-16T01:53:23.078Z,28.60
2018-12-16T01:54:23.053Z,24.50
2018-12-16T01:55:23.026Z,28.00
2018-12-16T01:56:23.013Z,26.40
2018-12-16T01:57:22.982Z,25.50
2018-12-16T01:58:22.955Z,25.80
2018-12-16T01:59:22.927Z,27.00
2018-12-16T02:00:22.897Z,26.50
2018-12-16T02:01:22.870Z,24.50
2018-12-16T02:02:22.846Z,24.60
2018-12-16T02:03:22.822Z,25.30
2018-12-16T02:04:22.792Z,26.60
2018-12-16T02:05:22.776Z,24.10
2018-12-16T02:06:22.742Z,25.10
2018-12-16T02:07:22.720Z,25.60
2018-12-16T02:08:22.687Z,23.30
2018-12-16T02:09:22.665Z,21.40
2018-12-16T02:10:22.643Z,25.20
2018-12-16T02:11:22.616Z,24.10
2018-12-16T02:12:22.585Z,25.00
2018-12-16T02:13:22.558Z,27.10
2018-12-16T02:14:22.538Z,25.90
2018-12-16T02:15:22.505Z,24.70
2018-12-16T02:16:22.479Z,26.60
2018-12-16T02:17:22.454Z,24.90
2018-12-16T02:18:22.429Z,24.40
2018-12-16T02:19:22.405Z,25.00
2018-12-16T02:20:22.375Z,25.70
2018-12-16T02:21:22.350Z,26.50
2018-12-16T02:22:22.324Z,26.50
2018-12-16T02:23:22.300Z,22.60
2018-12-16T02:24:22.269Z,23.90
2018-12-16T02:25:22.256Z,23.40
2018-12-16T02:26:22.224Z,24.90
2018-12-16T02:27:22.198Z,27.20
2018-12-16T02:28:22.166Z,25.80
2018-12-16T02:29:22.143Z,25.00
2018-12-16T02:30:22.125Z,23.40
2018-12-16T02:31:22.090Z,23.50
2018-12-16T02:32:22.067Z,25.80
2018-12-16T02:33:22.039Z,25.80
2018-12-16T02:34:22.013Z,23.60
2018-12-16T02:35:21.986Z,25.60
2018-12-16T02:36:21.962Z,25.10
2018-12-16T02:37:21.933Z,25.90
2018-12-16T02:38:21.908Z,25.50
2018-12-16T02:39:21.890Z,23.90
2018-12-16T02:40:21.873Z,27.50
2018-12-16T02:41:21.827Z,25.50
2018-12-16T02:42:21.805Z,25.10
2018-12-16T02:43:21.777Z,26.70
2018-12-16T02:44:21.749Z,25.90
2018-12-16T02:45:21.724Z,23.70
2018-12-16T02:46:21.703Z,26.40
2018-12-16T02:47:21.676Z,24.40
2018-12-16T02:48:21.646Z,26.30
2018-12-16T02:49:21.623Z,27.50
2018-12-16T02:50:21.598Z,25.00
2018-12-16T02:51:21.571Z,25.50
2018-12-16T02:52:21.557Z,24.40
2018-12-16T02:53:21.533Z,22.00
2018-12-16T02:54:21.506Z,25.90
2018-12-16T02:55:21.470Z,21.70
2018-12-16T02:56:21.464Z,27.10
2018-12-16T02:57:21.420Z,26.40
2018-12-16T02:58:21.390Z,26.80
2018-12-16T02:59:21.362Z,27.50
2018-12-16T03:00:21.336Z,26.40
2018-12-16T03:01:21.309Z,24.40
2018-12-16T03:02:21.284Z,25.30
2018-12-16T03:03:21.259Z,26.10
2018-12-16T03:04:21.233Z,26.80
2018-12-16T03:05:21.206Z,27.80
2018-12-16T03:06:21.180Z,24.90
2018-12-16T03:07:21.154Z,25.70
2018-12-16T03:08:21.129Z,26.00
2018-12-16T03:09:21.103Z,25.60
2018-12-16T03:10:21.084Z,25.70
2018-12-16T03:11:21.053Z,24.10
2018-12-16T03:12:21.030Z,27.10
2018-12-16T03:13:21.002Z,27.20
2018-12-16T03:14:20.975Z,24.80
2018-12-16T03:15:20.950Z,25.30
2018-12-16T03:16:20.927Z,27.20
2018-12-16T03:17:20.897Z,27.70
2018-12-16T03:18:20.876Z,25.50
2018-12-16T03:19:20.844Z,24.60
2018-12-16T03:20:20.817Z,24.60
2018-12-16T03:21:20.788Z,24.50
2018-12-16T03:22:20.764Z,27.70
2018-12-16T03:23:20.738Z,24.10
2018-12-16T03:24:20.722Z,26.00
2018-12-16T03:25:20.689Z,26.80
2018-12-16T03:26:20.662Z,26.70
2018-12-16T03:27:20.644Z,25.30
2018-12-16T03:28:20.608Z,23.20
2018-12-16T03:29:20.582Z,30.40
2018-12-16T03:30:23.253Z,23.00
2018-12-16T03:31:20.535Z,24.20
2018-12-16T03:32:20.506Z,24.50
2018-12-16T03:33:20.479Z,25.20
2018-12-16T03:34:20.454Z,24.70
2018-12-16T03:35:20.430Z,23.20
2018-12-16T03:36:20.403Z,24.20
2018-12-16T03:37:20.378Z,25.90
2018-12-16T03:38:20.363Z,24.20
2018-12-16T03:39:20.323Z,24.80
2018-12-16T03:40:20.298Z,21.00
2018-12-16T03:41:20.272Z,22.80
2018-12-16T03:42:20.253Z,24.10
2018-12-16T03:43:20.221Z,23.40
2018-12-16T03:44:20.199Z,24.50
2018-12-16T03:45:20.172Z,25.90
2018-12-16T03:46:20.141Z,25.50
2018-12-16T03:47:20.114Z,22.30
2018-12-16T03:48:20.087Z,24.80
2018-12-16T03:49:20.072Z,26.60
2018-12-16T03:50:20.039Z,23.20
2018-12-16T03:51:20.014Z,25.60
2018-12-16T03:52:19.986Z,24.90
2018-12-16T03:53:20.456Z,25.00
2018-12-16T03:54:19.932Z,25.30
2018-12-16T03:55:19.909Z,24.00
2018-12-16T03:56:19.880Z,24.40
2018-12-16T03:57:19.856Z,25.80
2018-12-16T03:58:19.955Z,24.30
2018-12-16T03:59:19.809Z,22.90
2018-12-16T04:00:19.778Z,22.80
2018-12-16T04:01:19.754Z,24.40
2018-12-16T04:02:19.728Z,24.10
2018-12-16T04:03:19.702Z,25.30
2018-12-16T04:04:19.680Z,23.90
2018-12-16T04:05:19.652Z,23.60
2018-12-16T04:06:19.629Z,23.50
2018-12-16T04:07:19.604Z,23.40
2018-12-16T04:08:19.653Z,23.80
2018-12-16T04:09:19.547Z,24.80
2018-12-16T04:10:19.523Z,23.40
2018-12-16T04:11:19.549Z,25.30
2018-12-16T04:12:19.470Z,20.30
2018-12-16T04:13:19.444Z,25.00
2018-12-16T04:14:19.424Z,25.40
2018-12-16T04:15:19.396Z,24.70
2018-12-16T04:16:19.366Z,23.60
2018-12-16T04:17:19.348Z,28.70
2018-12-16T04:18:19.317Z,24.90
2018-12-16T04:19:19.293Z,26.20
2018-12-16T04:20:19.276Z,25.40
2018-12-16T04:21:19.243Z,24.80
2018-12-16T04:22:19.218Z,25.80
2018-12-16T04:23:19.198Z,25.00
2018-12-16T04:24:19.164Z,25.40
2018-12-16T04:25:19.142Z,27.30
2018-12-16T04:26:19.113Z,25.30
2018-12-16T04:27:19.088Z,28.70
2018-12-16T04:28:19.063Z,26.20
2018-12-16T04:29:19.033Z,28.40
2018-12-16T04:30:19.010Z,26.90
2018-12-16T04:31:18.994Z,28.60
2018-12-16T04:32:19.010Z,27.40
2018-12-16T04:33:18.932Z,27.60
2018-12-16T04:34:18.907Z,31.10
2018-12-16T04:35:18.880Z,28.10
2018-12-16T04:36:18.853Z,27.80
2018-12-16T04:37:18.830Z,28.70
2018-12-16T04:38:18.809Z,28.60
2018-12-16T04:39:18.778Z,29.10
2018-12-16T04:40:18.753Z,25.50
2018-12-16T04:41:18.727Z,29.10
2018-12-16T04:42:18.709Z,27.20
2018-12-16T04:43:18.686Z,30.30
2018-12-16T04:44:18.652Z,29.10
2018-12-16T04:45:18.624Z,28.70
2018-12-16T04:46:18.599Z,26.60
2018-12-16T04:47:18.575Z,26.40
2018-12-16T04:48:18.550Z,28.10
2018-12-16T04:49:18.526Z,29.30
2018-12-16T04:50:18.495Z,29.00
2018-12-16T04:51:18.473Z,29.80
2018-12-16T04:52:18.444Z,29.60
2018-12-16T04:53:18.422Z,26.50
2018-12-16T04:54:18.393Z,29.10
2018-12-16T04:55:18.372Z,27.40
2018-12-16T04:56:18.342Z,30.60
2018-12-16T04:57:18.320Z,27.40
2018-12-16T04:58:18.292Z,28.40
2018-12-16T04:59:18.276Z,29.20
2018-12-16T05:00:18.244Z,28.90
2018-12-16T05:01:18.218Z,27.40
2018-12-16T05:02:18.189Z,27.10
2018-12-16T05:03:18.164Z,29.20
2018-12-16T05:04:18.143Z,28.90
2018-12-16T05:05:18.112Z,27.20
2018-12-16T05:06:19.587Z,28.30
2018-12-16T05:07:18.067Z,29.10
2018-12-16T05:08:18.038Z,30.00
2018-12-16T05:09:18.012Z,32.60
2018-12-16T05:10:17.989Z,29.30
2018-12-16T05:11:18.033Z,30.40
2018-12-16T05:12:17.935Z,29.30
2018-12-16T05:13:17.908Z,27.70
2018-12-16T05:14:17.886Z,30.20
2018-12-16T05:15:17.860Z,30.90
2018-12-16T05:16:17.835Z,29.60
2018-12-16T05:17:17.815Z,30.60
2018-12-16T05:18:17.789Z,30.10
2018-12-16T05:19:17.758Z,31.80
2018-12-16T05:20:17.743Z,28.60
2018-12-16T05:21:17.706Z,29.40
2018-12-16T05:22:17.680Z,31.50
2018-12-16T05:23:17.657Z,31.50
2018-12-16T05:24:17.634Z,35.70
2018-12-16T05:25:17.605Z,31.60
2018-12-16T05:26:17.580Z,31.50
2018-12-16T05:27:17.560Z,33.10
2018-12-16T05:28:17.529Z,31.20
2018-12-16T05:29:17.504Z,30.40
2018-12-16T05:30:17.481Z,33.30
2018-12-16T05:31:17.452Z,34.80
2018-12-16T05:32:17.426Z,34.20
2018-12-16T05:33:17.402Z,31.30
2018-12-16T05:34:17.375Z,33.50
2018-12-16T05:35:17.349Z,30.20
2018-12-16T05:36:17.338Z,32.20
2018-12-16T05:37:17.299Z,32.90
2018-12-16T05:38:17.276Z,33.90
2018-12-16T05:39:17.258Z,35.20
2018-12-16T05:40:17.223Z,34.20
2018-12-16T05:41:17.200Z,33.30
2018-12-16T05:42:17.172Z,35.10
2018-12-16T05:43:17.151Z,36.60
2018-12-16T05:44:17.123Z,36.20
2018-12-16T05:45:17.096Z,36.60
2018-12-16T05:46:17.070Z,33.90
2018-12-16T05:47:17.045Z,34.00
2018-12-16T05:48:17.021Z,36.70
2018-12-16T05:49:16.997Z,36.90
2018-12-16T05:50:16.974Z,37.20
2018-12-16T05:51:16.947Z,39.40
2018-12-16T05:52:16.917Z,35.90
2018-12-16T05:53:16.891Z,36.80
2018-12-16T05:54:16.871Z,37.30
2018-12-16T05:55:16.877Z,41.10
2018-12-16T05:56:16.816Z,39.80
2018-12-16T05:57:16.789Z,37.70
2018-12-16T05:58:16.764Z,39.00
2018-12-16T05:59:16.740Z,40.60
2018-12-16T06:00:16.714Z,40.90
2018-12-16T06:01:16.685Z,42.10
2018-12-16T06:02:16.659Z,41.20
2018-12-16T06:03:16.635Z,40.30
2018-12-16T06:04:16.610Z,40.80
2018-12-16T06:05:16.583Z,41.90
2018-12-16T06:06:16.559Z,40.40
2018-12-16T06:07:16.530Z,42.60
2018-12-16T06:08:16.504Z,47.00
2018-12-16T06:09:16.477Z,42.50
2018-12-16T06:10:16.455Z,43.30
2018-12-16T06:11:16.426Z,42.80
2018-12-16T06:12:16.412Z,42.70
2018-12-16T06:13:16.373Z,43.30
2018-12-16T06:14:16.349Z,44.00
2018-12-16T06:15:16.325Z,43.00
2018-12-16T06:16:16.296Z,42.10
2018-12-16T06:17:16.272Z,43.60
2018-12-16T06:18:16.254Z,43.10
2018-12-16T06:19:16.224Z,43.70
2018-12-16T06:20:16.194Z,44.80
2018-12-16T06:21:16.168Z,39.70
2018-12-16T06:22:16.142Z,39.80
2018-12-16T06:23:16.117Z,42.90
2018-12-16T06:24:16.091Z,40.00
2018-12-16T06:25:16.071Z,40.40
2018-12-16T06:26:16.039Z,41.10
2018-12-16T06:27:16.012Z,40.80
2018-12-16T06:28:15.985Z,41.60
2018-12-16T06:29:15.966Z,43.30
2018-12-16T06:30:15.934Z,38.80
2018-12-16T06:31:15.913Z,43.90
2018-12-16T06:32:15.881Z,40.40
2018-12-16T06:33:15.856Z,37.50
2018-12-16T06:34:15.833Z,40.20
2018-12-16T06:35:15.808Z,40.50
2018-12-16T06:36:15.781Z,42.70
2018-12-16T06:37:15.751Z,42.30
2018-12-16T06:38:15.727Z,39.00
2018-12-16T06:39:15.762Z,38.70
2018-12-16T06:40:15.675Z,40.80
2018-12-16T06:41:15.650Z,41.70
2018-12-16T06:42:15.626Z,38.20
2018-12-16T06:43:15.597Z,40.60
2018-12-16T06:44:15.582Z,40.20
2018-12-16T06:45:15.545Z,39.90
2018-12-16T06:46:15.518Z,43.50
2018-12-16T06:47:15.495Z,40.60
2018-12-16T06:48:15.467Z,36.10
2018-12-16T06:49:15.449Z,38.30
2018-12-16T06:50:15.419Z,42.50
2018-12-16T06:51:15.392Z,39.00
2018-12-16T06:52:15.364Z,38.50
2018-12-16T06:53:15.341Z,38.60
2018-12-16T06:54:15.324Z,39.50
2018-12-16T06:55:15.287Z,38.90
2018-12-16T06:56:15.260Z,37.50
2018-12-16T06:57:15.232Z,39.20
2018-12-16T06:58:15.208Z,39.00
2018-12-16T06:59:15.181Z,39.50
2018-12-16T07:00:15.154Z,41.70
2018-12-16T07:01:16.053Z,39.60
2018-12-16T07:02:15.108Z,36.90
2018-12-16T07:03:15.087Z,38.50
2018-12-16T07:04:15.050Z,32.40
2018-12-16T07:05:15.025Z,38.70
2018-12-16T07:06:15.002Z,38.00
2018-12-16T07:07:14.971Z,43.10
2018-12-16T07:08:14.948Z,36.40
2018-12-16T07:09:14.926Z,40.00
2018-12-16T07:10:14.899Z,38.10
2018-12-16T07:11:14.872Z,41.30
2018-12-16T07:12:14.842Z,38.80
2018-12-16T07:13:14.822Z,39.40
2018-12-16T07:14:14.790Z,41.40
2018-12-16T07:15:14.763Z,39.30
2018-12-16T07:16:14.740Z,39.60
2018-12-16T07:17:14.747Z,42.30
2018-12-16T07:18:14.687Z,39.50
2018-12-16T07:19:14.660Z,38.70
2018-12-16T07:20:14.635Z,39.00
2018-12-16T07:21:14.611Z,39.30
2018-12-16T07:22:14.596Z,40.80
2018-12-16T07:23:14.566Z,40.80
2018-12-16T07:24:14.531Z,41.70
2018-12-16T07:25:14.511Z,40.70
2018-12-16T07:26:14.482Z,43.10
2018-12-16T07:27:14.488Z,40.80
2018-12-16T07:28:14.427Z,45.70
2018-12-16T07:29:14.429Z,40.60
2018-12-16T07:30:14.376Z,42.70
2018-12-16T07:31:14.350Z,39.80
2018-12-16T07:32:14.372Z,44.20
2018-12-16T07:33:14.302Z,37.80
2018-12-16T07:34:14.277Z,45.20
2018-12-16T07:35:14.249Z,44.00
2018-12-16T07:36:14.229Z,40.50
2018-12-16T07:37:19.082Z,41.00
2018-12-16T07:38:14.186Z,40.20
2018-12-16T07:39:14.155Z,43.80
2018-12-16T07:40:14.116Z,44.80
2018-12-16T07:41:14.089Z,43.10
2018-12-16T07:42:14.112Z,43.40
2018-12-16T07:43:14.040Z,40.70
2018-12-16T07:44:14.010Z,42.90
2018-12-16T07:45:13.993Z,41.10
2018-12-16T07:46:13.963Z,46.80
2018-12-16T07:47:13.972Z,40.60
2018-12-16T07:48:13.918Z,45.80
2018-12-16T07:49:13.906Z,44.90
2018-12-16T07:50:13.855Z,45.50
2018-12-16T07:51:13.842Z,43.30
2018-12-16T07:52:13.806Z,42.40
2018-12-16T07:53:13.778Z,47.30
2018-12-16T07:54:16.155Z,45.20
2018-12-16T07:55:13.732Z,46.20
2018-12-16T07:56:13.699Z,43.80
2018-12-16T07:57:13.681Z,45.20
2018-12-16T07:58:13.649Z,45.60
2018-12-16T07:59:13.621Z,42.90
2018-12-16T08:00:13.599Z,43.30
2018-12-16T08:01:13.568Z,45.80
2018-12-16T08:02:13.544Z,50.20
2018-12-16T08:03:13.519Z,46.10
2018-12-16T08:04:13.493Z,46.50
2018-12-16T08:05:13.484Z,47.50
2018-12-16T08:06:13.449Z,49.30
2018-12-16T08:07:13.419Z,46.20
2018-12-16T08:08:13.392Z,47.70
2018-12-16T08:09:13.376Z,45.80
2018-12-16T08:10:13.336Z,46.50
2018-12-16T08:11:13.309Z,44.20
2018-12-16T08:12:13.287Z,47.00
2018-12-16T08:13:13.260Z,46.20
2018-12-16T08:14:13.230Z,46.80
2018-12-16T08:15:13.210Z,44.10
2018-12-16T08:16:13.181Z,48.30
2018-12-16T08:17:13.156Z,46.40
2018-12-16T08:18:13.130Z,48.60
2018-12-16T08:19:13.105Z,46.50
2018-12-16T08:20:13.083Z,43.60
2018-12-16T08:21:13.050Z,45.90
2018-12-16T08:22:13.027Z,42.70
2018-12-16T08:23:13.000Z,43.50
2018-12-16T08:24:12.978Z,44.60
2018-12-16T08:25:12.947Z,46.40
2018-12-16T08:26:12.927Z,46.40
2018-12-16T08:27:12.899Z,45.90
2018-12-16T08:28:12.871Z,50.40
2018-12-16T08:29:12.845Z,44.80
2018-12-16T08:30:12.827Z,48.30
2018-12-16T08:31:12.797Z,45.90
2018-12-16T08:32:12.774Z,46.60
2018-12-16T08:33:12.744Z,44.20
2018-12-16T08:34:12.717Z,45.80
2018-12-16T08:35:12.690Z,46.70
2018-12-16T08:36:12.666Z,45.40
2018-12-16T08:37:12.639Z,45.90
2018-12-16T08:38:12.624Z,45.80
2018-12-16T08:39:12.587Z,42.40
2018-12-16T08:40:12.560Z,43.80
2018-12-16T08:41:12.545Z,42.20
2018-12-16T08:42:12.514Z,46.90
2018-12-16T08:43:12.486Z,46.10
2018-12-16T08:44:12.457Z,46.50
2018-12-16T08:45:12.434Z,42.30
2018-12-16T08:46:12.408Z,43.00
2018-12-16T08:47:12.385Z,44.80
2018-12-16T08:48:12.356Z,43.50
2018-12-16T08:49:12.331Z,44.60
2018-12-16T08:50:12.306Z,44.80
2018-12-16T08:51:12.281Z,43.30
2018-12-16T08:52:12.255Z,43.50
2018-12-16T08:53:12.225Z,43.80
2018-12-16T08:54:12.201Z,43.60
2018-12-16T08:55:12.180Z,44.30
2018-12-16T08:56:12.150Z,39.10
2018-12-16T08:57:12.130Z,45.80
2018-12-16T08:58:12.103Z,40.90
2018-12-16T08:59:12.077Z,44.30
2018-12-16T09:00:12.047Z,41.50
2018-12-16T09:01:12.029Z,39.90
2018-12-16T09:02:11.999Z,38.80
2018-12-16T09:03:11.978Z,44.20
2018-12-16T09:04:11.946Z,43.50
2018-12-16T09:05:11.921Z,42.40
2018-12-16T09:06:11.895Z,44.20
2018-12-16T09:07:11.869Z,44.30
2018-12-16T09:08:11.850Z,41.80
2018-12-16T09:09:11.825Z,44.50
2018-12-16T09:10:11.793Z,45.30
2018-12-16T09:11:11.769Z,43.20
2018-12-16T09:12:11.739Z,45.10
2018-12-16T09:13:11.714Z,44.70
2018-12-16T09:14:11.689Z,45.40
2018-12-16T09:15:11.669Z,44.40
2018-12-16T09:16:11.642Z,43.10
2018-12-16T09:17:11.613Z,43.50
2018-12-16T09:18:11.587Z,42.00
2018-12-16T09:19:11.565Z,44.30
2018-12-16T09:20:11.540Z,42.20
2018-12-16T09:21:11.512Z,44.40
2018-12-16T09:22:11.484Z,48.50
2018-12-16T09:23:11.458Z,44.00
2018-12-16T09:24:11.430Z,41.60
2018-12-16T09:25:11.405Z,44.80
2018-12-16T09:26:11.379Z,44.90
2018-12-16T09:27:11.354Z,45.50
2018-12-16T09:28:11.327Z,47.30
2018-12-16T09:29:11.302Z,45.20
2018-12-16T09:30:11.289Z,45.10
2018-12-16T09:31:11.259Z,46.70
2018-12-16T09:32:11.226Z,44.80
2018-12-16T09:33:11.206Z,46.60
2018-12-16T09:34:11.176Z,49.20
2018-12-16T09:35:11.148Z,45.90
2018-12-16T09:36:11.138Z,46.80
2018-12-16T09:37:11.097Z,49.10
2018-12-16T09:38:11.102Z,48.20
2018-12-16T09:39:11.050Z,47.80
2018-12-16T09:40:11.023Z,47.70
2018-12-16T09:41:11.012Z,42.90
2018-12-16T09:42:10.971Z,47.80
2018-12-16T09:43:10.947Z,47.10
2018-12-16T09:44:10.928Z,47.10
2018-12-16T09:45:10.907Z,45.30
2018-12-16T09:46:10.886Z,47.60
2018-12-16T09:47:10.844Z,44.30
2018-12-16T09:48:10.817Z,51.30
2018-12-16T09:49:10.800Z,50.40
2018-12-16T09:50:10.782Z,48.40
2018-12-16T09:51:10.742Z,53.30
2018-12-16T09:52:10.726Z,50.30
2018-12-16T09:53:10.698Z,47.80
2018-12-16T09:54:10.677Z,44.30
2018-12-16T09:55:10.645Z,44.70
2018-12-16T09:56:10.614Z,48.20
2018-12-16T09:57:10.599Z,43.20
2018-12-16T09:58:10.571Z,44.00
2018-12-16T09:59:10.540Z,45.30
2018-12-16T10:00:10.513Z,49.20
2018-12-16T10:01:10.485Z,46.90
2018-12-16T10:02:10.468Z,47.80
2018-12-16T10:03:10.438Z,48.50
2018-12-16T10:04:10.410Z,51.50
2018-12-16T10:05:10.390Z,46.00
2018-12-16T10:06:10.360Z,43.30
2018-12-16T10:07:10.337Z,48.80
2018-12-16T10:08:10.316Z,45.30
2018-12-16T10:09:10.289Z,41.10
2018-12-16T10:10:10.267Z,45.00
2018-12-16T10:11:10.233Z,43.30
2018-12-16T10:12:10.208Z,42.80
2018-12-16T10:13:10.179Z,38.90
2018-12-16T10:14:10.155Z,45.60
2018-12-16T10:15:10.142Z,43.60
2018-12-16T10:16:10.105Z,42.90
2018-12-16T10:17:10.078Z,45.50
2018-12-16T10:18:10.064Z,42.90
2018-12-16T10:19:10.026Z,44.40
2018-12-16T10:20:10.011Z,45.30
2018-12-16T10:21:09.977Z,41.10
2018-12-16T10:22:09.952Z,46.50
2018-12-16T10:23:09.929Z,44.80
2018-12-16T10:24:09.905Z,44.20
2018-12-16T10:25:09.876Z,44.40
2018-12-16T10:26:09.852Z,43.50
2018-12-16T10:27:09.826Z,46.20
2018-12-16T10:28:09.810Z,45.20
2018-12-16T10:29:09.769Z,48.50
2018-12-16T10:30:09.744Z,48.10
2018-12-16T10:31:09.721Z,47.70
2018-12-16T10:32:09.698Z,45.00
2018-12-16T10:33:09.682Z,45.10
2018-12-16T10:34:09.651Z,43.50
2018-12-16T10:35:09.625Z,46.70
2018-12-16T10:36:09.611Z,44.00
2018-12-16T10:37:09.582Z,44.30
2018-12-16T10:38:09.562Z,46.60
2018-12-16T10:39:09.523Z,43.70
2018-12-16T10:40:09.500Z,47.50
2018-12-16T10:41:09.473Z,41.70
2018-12-16T10:42:09.447Z,46.20
2018-12-16T10:43:09.425Z,44.60
2018-12-16T10:44:09.397Z,42.30
2018-12-16T10:45:09.378Z,45.90
2018-12-16T10:46:09.344Z,43.80
2018-12-16T10:47:09.336Z,45.70
2018-12-16T10:48:09.526Z,46.00
2018-12-16T10:49:09.266Z,47.80
2018-12-16T10:50:09.244Z,46.50
2018-12-16T10:51:09.228Z,44.80
2018-12-16T10:52:09.194Z,50.20
2018-12-16T10:53:09.175Z,47.40
2018-12-16T10:54:09.150Z,49.20
2018-12-16T10:55:09.123Z,47.50
2018-12-16T10:56:09.091Z,45.90
2018-12-16T10:57:09.079Z,50.60
2018-12-16T10:58:09.047Z,47.60
2018-12-16T10:59:09.017Z,49.70
2018-12-16T11:00:08.996Z,46.80
2018-12-16T11:01:08.966Z,45.80
2018-12-16T11:02:08.943Z,44.90
2018-12-16T11:03:08.917Z,41.30
2018-12-16T11:04:08.891Z,46.40
2018-12-16T11:05:08.864Z,43.50
2018-12-16T11:06:08.837Z,48.70
2018-12-16T11:07:08.812Z,46.50
2018-12-16T11:08:08.793Z,45.60
2018-12-16T11:09:08.762Z,47.50
2018-12-16T11:10:08.736Z,50.50
2018-12-16T11:11:08.715Z,48.60
2018-12-16T11:12:08.686Z,46.50
2018-12-16T11:13:08.671Z,48.40
2018-12-16T11:14:08.638Z,46.00
2018-12-16T11:15:08.620Z,49.60
2018-12-16T11:16:08.583Z,45.90
2018-12-16T11:17:08.569Z,48.30
2018-12-16T11:18:08.542Z,49.90
2018-12-16T11:19:08.518Z,47.50
2018-12-16T11:20:08.498Z,51.40
2018-12-16T11:21:08.461Z,46.70
2018-12-16T11:22:08.445Z,46.00
2018-12-16T11:23:08.417Z,50.20
2018-12-16T11:24:08.394Z,45.50
2018-12-16T11:25:08.364Z,46.80
2018-12-16T11:26:08.340Z,47.30
2018-12-16T11:27:08.313Z,50.40
2018-12-16T11:28:08.286Z,47.80
2018-12-16T11:29:08.265Z,45.20
2018-12-16T11:30:08.237Z,50.40
2018-12-16T11:31:08.217Z,44.70
2018-12-16T11:32:08.192Z,46.40
2018-12-16T11:33:08.160Z,46.40
2018-12-16T11:34:08.139Z,46.00
2018-12-16T11:35:08.112Z,48.30
2018-12-16T11:36:08.085Z,42.60
2018-12-16T11:37:08.065Z,46.20
2018-12-16T11:38:08.036Z,46.80
2018-12-16T11:39:08.011Z,49.00
2018-12-16T11:40:07.985Z,44.00
2018-12-16T11:41:07.960Z,49.40
2018-12-16T11:42:07.942Z,42.80
2018-12-16T11:43:07.912Z,47.00
2018-12-16T11:44:07.888Z,46.70
2018-12-16T11:45:07.872Z,45.40
2018-12-16T11:46:07.834Z,47.10
2018-12-16T11:47:07.812Z,45.90
2018-12-16T11:48:07.786Z,49.00
2018-12-16T11:49:07.767Z,45.20
2018-12-16T11:50:07.737Z,44.50
2018-12-16T11:51:07.725Z,47.40
2018-12-16T11:52:07.692Z,48.20
2018-12-16T11:53:07.665Z,46.40
2018-12-16T11:54:07.644Z,44.30
2018-12-16T11:55:12.681Z,46.90
2018-12-16T11:56:07.591Z,43.10
2018-12-16T11:57:07.571Z,47.00
2018-12-16T11:58:07.542Z,48.40
2018-12-16T11:59:07.515Z,48.60
2018-12-16T12:00:07.492Z,44.90
2018-12-16T12:01:07.463Z,45.90
2018-12-16T12:02:07.442Z,45.00
2018-12-16T12:03:07.419Z,42.90
2018-12-16T12:04:07.392Z,47.20
2018-12-16T12:05:07.369Z,46.60
2018-12-16T12:06:07.339Z,46.50
2018-12-16T12:07:07.314Z,45.50
2018-12-16T12:08:07.292Z,44.70
2018-12-16T12:09:07.263Z,44.80
2018-12-16T12:10:07.250Z,43.60
2018-12-16T12:11:07.218Z,45.50
2018-12-16T12:12:07.199Z,46.30
2018-12-16T12:13:07.160Z,44.60
2018-12-16T12:14:07.141Z,45.20
2018-12-16T12:15:07.114Z,48.00
2018-12-16T12:16:07.104Z,44.60
2018-12-16T12:17:07.071Z,47.30
2018-12-16T12:18:07.053Z,44.30
2018-12-16T12:19:07.018Z,48.00
2018-12-16T12:20:06.991Z,47.30
2018-12-16T12:21:06.975Z,44.80
2018-12-16T12:22:06.941Z,44.10
2018-12-16T12:23:06.912Z,45.80
2018-12-16T12:24:06.887Z,44.70
2018-12-16T12:25:06.865Z,45.50
2018-12-16T12:26:06.841Z,47.60
2018-12-16T12:27:06.830Z,46.90
2018-12-16T12:28:06.791Z,46.50
2018-12-16T12:29:06.765Z,46.00
2018-12-16T12:30:06.745Z,44.60
2018-12-16T12:31:06.723Z,47.60
2018-12-16T12:32:06.690Z,46.20
2018-12-16T12:33:06.666Z,45.30
2018-12-16T12:34:06.648Z,44.30
2018-12-16T12:35:06.622Z,48.50
2018-12-16T12:36:06.611Z,47.10
2018-12-16T12:37:06.577Z,45.90
2018-12-16T12:38:06.544Z,44.30
2018-12-16T12:39:06.517Z,46.80
2018-12-16T12:40:06.490Z,51.00
2018-12-16T12:41:06.469Z,48.10
2018-12-16T12:42:06.443Z,49.90
2018-12-16T12:43:06.423Z,43.90
2018-12-16T12:44:06.392Z,47.10
2018-12-16T12:45:06.369Z,51.90
2018-12-16T12:46:06.347Z,47.90
2018-12-16T12:47:06.318Z,46.80
2018-12-16T12:48:06.380Z,49.00
2018-12-16T12:49:06.279Z,45.90
2018-12-16T12:50:06.250Z,45.70
2018-12-16T12:51:06.224Z,52.40
2018-12-16T12:52:06.200Z,50.00